createdAt,value
2018-01-08T00:00:30.889Z,33.83
2018-01-08T00:02:59.993Z,38.97
2018-01-08T00:05:29.174Z,37.47
2018-01-08T00:07:57.525Z,36.63
2018-01-08T00:10:25.976Z,38.43
2018-01-08T00:12:54.301Z,37.67
2018-01-08T00:15:23.436Z,35.73
2018-01-08T00:17:51.777Z,37.70
2018-01-08T00:20:20.957Z,36.93
2018-01-08T00:22:49.313Z,37.63
2018-01-08T00:25:17.677Z,36.57
2018-01-08T00:27:46.043Z,42.93
2018-01-08T00:30:14.460Z,37.70
2018-01-08T00:32:42.823Z,39.67
2018-01-08T00:35:11.165Z,39.83
2018-01-08T00:37:39.508Z,39.43
2018-01-08T00:40:07.866Z,39.00
2018-01-08T00:42:36.203Z,38.77
2018-01-08T00:45:04.221Z,41.10
2018-01-08T00:47:32.576Z,43.07
2018-01-08T00:50:00.900Z,43.33
2018-01-08T00:52:29.232Z,40.70
2018-01-08T00:54:59.341Z,38.67
2018-01-08T00:57:28.361Z,37.77
2018-01-08T00:59:57.464Z,39.10
2018-01-08T01:02:27.037Z,39.17
2018-01-08T01:04:56.812Z,40.20
2018-01-08T01:07:25.172Z,41.07
2018-01-08T01:09:54.397Z,42.67
2018-01-08T01:12:22.741Z,42.67
2018-01-08T01:14:51.913Z,40.97
2018-01-08T01:17:20.256Z,43.50
2018-01-08T01:19:48.675Z,37.33
2018-01-08T01:22:17.793Z,35.67
2018-01-08T01:24:46.141Z,38.50
2018-01-08T01:27:14.505Z,38.77
2018-01-08T01:29:42.876Z,44.70
2018-01-08T01:32:11.252Z,43.27
2018-01-08T01:34:39.820Z,39.13
2018-01-08T01:37:08.161Z,34.10
2018-01-08T01:39:36.520Z,37.80
2018-01-08T01:42:05.615Z,38.97
2018-01-08T01:44:34.889Z,27.73
2018-01-08T01:47:03.225Z,41.17
2018-01-08T01:49:31.639Z,36.77
2018-01-08T01:51:59.992Z,39.23
2018-01-08T01:54:29.166Z,42.40
2018-01-08T01:56:57.215Z,40.27
2018-01-08T01:59:26.865Z,42.20
2018-01-08T02:01:55.210Z,38.40
2018-01-08T02:04:23.564Z,38.70
2018-01-08T02:06:52.659Z,36.17
2018-01-08T02:09:21.912Z,39.73
2018-01-08T02:11:50.267Z,37.80
2018-01-08T02:14:18.597Z,38.80
2018-01-08T02:16:46.957Z,33.40
2018-01-08T02:19:15.331Z,35.30
2018-01-08T02:21:43.734Z,37.93
2018-01-08T02:24:12.168Z,36.53
2018-01-08T02:26:40.514Z,34.53
2018-01-08T02:29:09.753Z,40.20
2018-01-08T02:31:38.100Z,40.53
2018-01-08T02:34:06.438Z,35.90
2018-01-08T02:36:34.788Z,40.43
2018-01-08T02:39:02.680Z,41.80
2018-01-08T02:41:31.028Z,37.20
2018-01-08T02:43:59.431Z,31.53
2018-01-08T02:46:28.625Z,35.83
2018-01-08T02:48:57.600Z,34.30
2018-01-08T02:51:26.146Z,40.90
2018-01-08T02:53:54.651Z,38.13
2018-01-08T02:56:23.009Z,38.27
2018-01-08T02:58:51.345Z,32.57
2018-01-08T03:01:20.473Z,33.43
2018-01-08T03:03:48.826Z,38.80
2018-01-08T03:06:17.928Z,36.93
2018-01-08T03:08:46.274Z,25.43
2018-01-08T03:11:14.597Z,35.23
2018-01-08T03:13:43.031Z,35.93
2018-01-08T03:16:11.371Z,38.60
2018-01-08T03:18:39.716Z,26.70
2018-01-08T03:21:08.066Z,36.40
2018-01-08T03:23:37.227Z,39.93
2018-01-08T03:26:06.356Z,34.53
2018-01-08T03:28:35.528Z,35.53
2018-01-08T03:31:03.894Z,34.27
2018-01-08T03:33:32.311Z,36.70
2018-01-08T03:36:01.411Z,31.50
2018-01-08T03:38:30.584Z,34.70
2018-01-08T03:40:58.924Z,37.30
2018-01-08T03:43:27.996Z,25.10
2018-01-08T03:45:56.917Z,34.90
2018-01-08T03:48:26.113Z,38.60
2018-01-08T03:50:54.452Z,40.03
2018-01-08T03:53:22.870Z,29.70
2018-01-08T03:55:51.281Z,35.73
2018-01-08T03:58:19.675Z,30.57
2018-01-08T04:00:48.779Z,35.87
2018-01-08T04:03:17.221Z,40.57
2018-01-08T04:05:45.566Z,36.50
2018-01-08T04:08:14.078Z,31.30
2018-01-08T04:10:42.410Z,37.13
2018-01-08T04:13:10.823Z,39.77
2018-01-08T04:15:39.181Z,43.03
2018-01-08T04:18:07.527Z,36.50
2018-01-08T04:20:35.874Z,34.40
2018-01-08T04:23:04.990Z,26.20
2018-01-08T04:25:33.323Z,34.27
2018-01-08T04:28:01.779Z,35.40
2018-01-08T04:30:30.124Z,37.70
2018-01-08T04:32:58.901Z,31.40
2018-01-08T04:35:29.001Z,29.97
2018-01-08T04:37:58.046Z,22.83
2018-01-08T04:40:27.204Z,37.13
2018-01-08T04:42:56.845Z,28.93
2018-01-08T04:45:25.198Z,18.70
2018-01-08T04:47:53.542Z,24.17
2018-01-08T04:50:21.904Z,25.87
2018-01-08T04:52:51.163Z,35.53
2018-01-08T04:55:19.506Z,37.27
2018-01-08T04:57:48.616Z,32.30
2018-01-08T05:00:17.723Z,28.60
2018-01-08T05:02:46.192Z,32.53
2018-01-08T05:05:14.549Z,35.60
2018-01-08T05:07:43.652Z,36.13
2018-01-08T05:10:12.763Z,29.03
2018-01-08T05:12:41.176Z,28.53
2018-01-08T05:15:09.517Z,32.27
2018-01-08T05:17:37.966Z,33.30
2018-01-08T05:20:06.317Z,34.10
2018-01-08T05:22:35.617Z,31.40
2018-01-08T05:25:03.965Z,14.80
2018-01-08T05:27:32.400Z,31.53
2018-01-08T05:30:00.750Z,36.00
2018-01-08T05:32:30.064Z,34.67
2018-01-08T05:34:58.410Z,39.90
2018-01-08T05:37:26.864Z,34.13
2018-01-08T05:39:55.200Z,34.30
2018-01-08T05:42:24.577Z,34.97
2018-01-08T05:44:52.931Z,35.93
2018-01-08T05:47:21.324Z,33.37
2018-01-08T05:49:49.658Z,34.63
2018-01-08T05:52:18.055Z,27.63
2018-01-08T05:54:46.404Z,36.77
2018-01-08T05:57:15.648Z,13.73
2018-01-08T05:59:44.004Z,23.07
2018-01-08T06:02:13.550Z,24.93
2018-01-08T06:04:41.900Z,30.90
2018-01-08T06:07:10.421Z,34.23
2018-01-08T06:09:38.746Z,37.40
2018-01-08T06:12:07.075Z,32.20
2018-01-08T06:14:35.428Z,28.47
2018-01-08T06:17:03.884Z,32.20
2018-01-08T06:19:32.225Z,32.40
2018-01-08T06:22:01.392Z,30.60
2018-01-08T06:24:29.749Z,20.87
2018-01-08T06:26:58.340Z,38.37
2018-01-08T06:29:27.029Z,36.80
2018-01-08T06:31:55.402Z,39.83
2018-01-08T06:34:23.742Z,36.67
2018-01-08T06:36:52.130Z,40.97
2018-01-08T06:39:20.484Z,35.60
2018-01-08T06:41:48.858Z,32.43
2018-01-08T06:44:17.220Z,24.60
2018-01-08T06:46:46.392Z,31.47
2018-01-08T06:49:14.734Z,33.50
2018-01-08T06:51:43.151Z,17.23
2018-01-08T06:54:11.496Z,32.63
2018-01-08T06:56:39.921Z,31.17
2018-01-08T06:59:08.251Z,32.00
2018-01-08T07:01:36.708Z,25.30
2018-01-08T07:04:05.035Z,31.33
2018-01-08T07:06:33.410Z,19.00
2018-01-08T07:09:01.785Z,25.40
2018-01-08T07:11:30.166Z,24.77
2018-01-08T07:13:58.332Z,23.67
2018-01-08T07:16:27.088Z,17.23
2018-01-08T07:18:55.796Z,25.33
2018-01-08T07:21:23.926Z,29.93
2018-01-08T07:23:52.266Z,29.20
2018-01-08T07:26:20.621Z,34.77
2018-01-08T07:28:49.750Z,27.40
2018-01-08T07:31:18.881Z,24.77
2018-01-08T07:33:47.211Z,24.17
2018-01-08T07:36:15.578Z,26.30
2018-01-08T07:38:43.946Z,25.53
2018-01-08T07:41:12.346Z,24.63
2018-01-08T07:43:40.679Z,26.97
2018-01-08T07:46:09.075Z,31.47
2018-01-08T07:48:37.436Z,30.37
2018-01-08T07:51:05.838Z,34.03
2018-01-08T07:53:34.174Z,36.00
2018-01-08T07:56:02.535Z,34.33
2018-01-08T07:58:30.858Z,20.67
2018-01-08T08:00:59.316Z,28.97
2018-01-08T08:03:27.682Z,31.00
2018-01-08T08:05:56.235Z,28.27
2018-01-08T08:08:25.359Z,39.23
2018-01-08T08:10:53.705Z,34.53
2018-01-08T08:13:22.813Z,34.80
2018-01-08T08:15:51.245Z,33.50
2018-01-08T08:18:19.592Z,34.47
2018-01-08T08:20:47.995Z,36.40
2018-01-08T08:23:16.350Z,37.93
2018-01-08T08:25:44.693Z,34.83
2018-01-08T08:28:13.807Z,34.10
2018-01-08T08:30:42.237Z,39.43
2018-01-08T08:33:10.600Z,18.57
2018-01-08T08:35:39.152Z,39.17
2018-01-08T08:38:07.496Z,38.07
2018-01-08T08:40:36.610Z,37.17
2018-01-08T08:43:04.986Z,32.53
2018-01-08T08:45:33.313Z,40.17
2018-01-08T08:48:01.760Z,27.07
2018-01-08T08:50:30.119Z,28.23
2018-01-08T08:52:58.479Z,34.90
2018-01-08T08:55:28.441Z,40.80
2018-01-08T08:57:57.706Z,36.73
2018-01-08T09:00:26.492Z,38.47
2018-01-08T09:02:55.083Z,38.30
2018-01-08T09:05:23.449Z,40.63
2018-01-08T09:07:51.783Z,38.90
2018-01-08T09:10:20.130Z,36.20
2018-01-08T09:12:48.590Z,35.87
2018-01-08T09:15:16.945Z,40.17
2018-01-08T09:17:46.062Z,38.57
2018-01-08T09:20:14.397Z,35.07
2018-01-08T09:22:42.856Z,36.30
2018-01-08T09:25:11.199Z,38.47
2018-01-08T09:27:39.547Z,33.70
2018-01-08T09:30:08.654Z,36.30
2018-01-08T09:32:37.038Z,33.43
2018-01-08T09:35:05.406Z,36.20
2018-01-08T09:37:34.577Z,27.43
2018-01-08T09:40:02.906Z,36.80
2018-01-08T09:42:32.332Z,28.43
2018-01-08T09:45:00.810Z,31.30
2018-01-08T09:47:29.156Z,40.17
2018-01-08T09:49:58.128Z,21.87
2018-01-08T09:52:27.763Z,25.27
2018-01-08T09:54:55.770Z,22.33
2018-01-08T09:57:24.134Z,31.67
2018-01-08T09:59:52.533Z,28.17
2018-01-08T10:02:19.737Z,21.00
2018-01-08T10:04:59.200Z,24.77
2018-01-08T10:07:38.853Z,32.57
2018-01-08T10:10:18.435Z,27.63
2018-01-08T10:12:57.958Z,37.03
2018-01-08T10:15:37.794Z,24.57
2018-01-08T10:18:17.610Z,34.43
2018-01-08T10:20:45.960Z,27.27
2018-01-08T10:23:14.371Z,34.03
2018-01-08T10:25:42.716Z,36.97
2018-01-08T10:28:11.171Z,39.10
2018-01-08T10:30:39.180Z,24.33
2018-01-08T10:33:07.204Z,31.43
2018-01-08T10:35:35.985Z,27.47
2018-01-08T10:38:04.824Z,34.03
2018-01-08T10:40:33.185Z,30.60
2018-01-08T10:43:07.155Z,36.67
2018-01-08T10:45:41.736Z,24.97
2018-01-08T10:48:16.385Z,35.23
2018-01-08T10:50:50.816Z,32.93
2018-01-08T10:53:29.795Z,36.50
2018-01-08T10:55:58.645Z,28.47
2018-01-08T10:58:28.286Z,26.53
2018-01-08T11:01:02.088Z,32.60
2018-01-08T11:03:36.524Z,31.13
2018-01-08T11:06:05.770Z,38.60
2018-01-08T11:08:34.945Z,35.07
2018-01-08T11:11:03.144Z,26.87
2018-01-08T11:13:32.299Z,22.63
2018-01-08T11:16:00.812Z,26.83
2018-01-08T11:18:29.927Z,26.97
2018-01-08T11:20:59.198Z,24.43
2018-01-08T11:23:27.830Z,31.80
2018-01-08T11:25:56.603Z,27.43
2018-01-08T11:28:24.941Z,24.13
2018-01-08T11:30:53.317Z,25.77
2018-01-08T11:33:21.409Z,23.10
2018-01-08T11:35:49.862Z,16.00
2018-01-08T11:38:17.584Z,27.07
2018-01-08T11:40:45.260Z,13.93
2018-01-08T11:43:12.989Z,9.33
2018-01-08T11:45:40.697Z,17.30
2018-01-08T11:48:08.489Z,20.47
2018-01-08T11:50:36.934Z,16.13
2018-01-08T11:53:04.689Z,18.13
2018-01-08T11:55:32.368Z,15.93
2018-01-08T11:58:00.126Z,21.50
2018-01-08T12:00:28.540Z,18.37
2018-01-08T12:02:57.981Z,10.73
2018-01-08T12:05:25.652Z,15.77
2018-01-08T12:07:54.150Z,22.07
2018-01-08T12:10:21.873Z,10.93
2018-01-08T12:12:49.634Z,16.10
2018-01-08T12:15:17.323Z,16.10
2018-01-08T12:17:45.029Z,21.30
2018-01-08T12:20:14.179Z,18.53
2018-01-08T12:22:43.441Z,9.60
2018-01-08T12:25:12.544Z,11.07
2018-01-08T12:27:40.572Z,13.33
2018-01-08T12:30:08.770Z,21.97
2018-01-08T12:32:37.616Z,21.47
2018-01-08T12:35:05.978Z,15.63
2018-01-08T12:37:34.358Z,12.40
2018-01-08T12:40:02.781Z,26.83
2018-01-08T12:42:31.881Z,19.33
2018-01-08T12:45:00.643Z,16.43
2018-01-08T12:47:29.916Z,19.53
2018-01-08T12:49:58.003Z,14.60
2018-01-08T12:52:26.501Z,21.17
2018-01-08T12:54:54.541Z,18.40
2018-01-08T12:57:22.556Z,18.57
2018-01-08T12:59:51.692Z,17.00
2018-01-08T13:02:19.734Z,12.67
2018-01-08T13:04:48.308Z,17.10
2018-01-08T13:07:16.128Z,19.57
2018-01-08T13:09:44.617Z,15.80
2018-01-08T13:12:12.955Z,22.80
2018-01-08T13:14:41.315Z,14.63
2018-01-08T13:17:09.915Z,19.67
2018-01-08T13:19:38.309Z,19.00
2018-01-08T13:22:06.330Z,15.40
2018-01-08T13:24:35.472Z,17.07
2018-01-08T13:27:03.506Z,16.00
2018-01-08T13:29:32.676Z,21.53
2018-01-08T13:32:00.687Z,14.40
2018-01-08T13:34:28.994Z,19.43
2018-01-08T13:36:57.331Z,15.47
2018-01-08T13:39:25.678Z,12.30
2018-01-08T13:41:53.365Z,20.27
2018-01-08T13:44:22.533Z,19.10
2018-01-08T13:46:50.235Z,23.73
2018-01-08T13:49:17.910Z,16.70
2018-01-08T13:51:45.588Z,23.73
2018-01-08T13:54:13.333Z,19.50
2018-01-08T13:56:41.046Z,23.73
2018-01-08T13:59:09.495Z,16.07
2018-01-08T14:01:37.180Z,21.40
2018-01-08T14:04:04.733Z,16.00
2018-01-08T14:06:32.411Z,16.57
2018-01-08T14:09:00.928Z,22.27
2018-01-08T14:11:28.712Z,23.50
2018-01-08T14:13:57.967Z,21.10
2018-01-08T14:16:27.757Z,17.07
2018-01-08T14:18:56.588Z,16.47
2018-01-08T14:21:24.920Z,19.47
2018-01-08T14:23:53.397Z,13.13
2018-01-08T14:26:21.732Z,18.77
2018-01-08T14:28:50.145Z,13.10
2018-01-08T14:31:18.489Z,21.97
2018-01-08T14:33:46.567Z,18.00
2018-01-08T14:36:14.931Z,20.70
2018-01-08T14:38:43.280Z,21.97
2018-01-08T14:41:12.395Z,21.53
2018-01-08T14:43:40.768Z,17.73
2018-01-08T14:46:09.150Z,9.23
2018-01-08T14:48:37.642Z,18.00
2018-01-08T14:51:05.670Z,15.30
2018-01-08T14:53:34.537Z,14.70
2018-01-08T14:56:02.878Z,16.57
2018-01-08T14:58:30.890Z,16.47
2018-01-08T15:00:59.148Z,20.00
2018-01-08T15:03:27.516Z,15.03
2018-01-08T15:05:55.866Z,14.40
2018-01-08T15:08:24.309Z,13.33
2018-01-08T15:10:52.745Z,18.13
2018-01-08T15:13:20.799Z,13.70
2018-01-08T15:15:48.516Z,13.50
2018-01-08T15:18:16.662Z,13.37
2018-01-08T15:20:45.180Z,12.93
2018-01-08T15:23:13.697Z,15.67
2018-01-08T15:25:41.718Z,21.53
2018-01-08T15:28:10.934Z,15.87
2018-01-08T15:30:40.042Z,23.40
2018-01-08T15:33:08.395Z,21.53
2018-01-08T15:35:37.515Z,11.10
2018-01-08T15:38:05.747Z,14.07
2018-01-08T15:40:34.114Z,25.00
2018-01-08T15:43:02.521Z,15.20
2018-01-08T15:45:31.631Z,21.53
2018-01-08T15:48:00.130Z,20.03
2018-01-08T15:50:29.342Z,23.97
2018-01-08T15:52:57.701Z,16.20
2018-01-08T15:55:26.030Z,21.83
2018-01-08T15:57:54.479Z,13.23
2018-01-08T16:00:22.822Z,22.90
2018-01-08T16:02:51.166Z,25.07
2018-01-08T16:05:19.507Z,20.70
2018-01-08T16:07:47.944Z,17.90
2018-01-08T16:10:17.046Z,24.17
2018-01-08T16:12:45.511Z,17.60
2018-01-08T16:15:14.616Z,16.87
2018-01-08T16:17:43.896Z,18.67
2018-01-08T16:20:13.016Z,18.93
2018-01-08T16:22:41.455Z,16.70
2018-01-08T16:25:09.819Z,19.13
2018-01-08T16:27:38.238Z,14.73
2018-01-08T16:30:06.783Z,22.17
2018-01-08T16:32:35.172Z,13.23
2018-01-08T16:35:03.522Z,28.63
2018-01-08T16:37:31.874Z,27.80
2018-01-08T16:40:00.231Z,17.20
2018-01-08T16:42:29.567Z,21.30
2018-01-08T16:44:58.280Z,24.70
2018-01-08T16:47:27.542Z,23.40
2018-01-08T16:49:55.897Z,15.83
2018-01-08T16:52:24.314Z,17.77
2018-01-08T16:54:52.678Z,22.03
2018-01-08T16:57:21.120Z,14.07
2018-01-08T16:59:50.214Z,17.13
2018-01-08T17:02:19.439Z,19.83
2018-01-08T17:04:47.798Z,23.73
2018-01-08T17:07:16.969Z,24.30
2018-01-08T17:09:45.308Z,20.50
2018-01-08T17:12:13.706Z,14.73
2018-01-08T17:14:42.060Z,15.97
2018-01-08T17:17:10.469Z,12.90
2018-01-08T17:19:38.828Z,19.00
2018-01-08T17:22:07.231Z,16.37
2018-01-08T17:24:35.574Z,23.30
2018-01-08T17:27:03.987Z,24.67
2018-01-08T17:29:32.341Z,23.00
2018-01-08T17:32:00.830Z,21.17
2018-01-08T17:34:30.013Z,21.13
2018-01-08T17:36:59.122Z,21.33
2018-01-08T17:39:27.941Z,17.00
2018-01-08T17:41:57.532Z,15.37
2018-01-08T17:44:25.901Z,19.80
2018-01-08T17:46:54.343Z,13.60
2018-01-08T17:49:22.679Z,17.63
2018-01-08T17:51:53.519Z,26.73
2018-01-08T17:54:22.619Z,17.77
2018-01-08T17:56:51.580Z,15.13
2018-01-08T17:59:19.930Z,19.47
2018-01-08T18:01:48.359Z,18.20
2018-01-08T18:04:17.440Z,16.27
2018-01-08T18:06:45.873Z,16.87
2018-01-08T18:09:14.225Z,16.70
2018-01-08T18:11:43.343Z,20.00
2018-01-08T18:14:11.711Z,25.53
2018-01-08T18:16:40.121Z,19.73
2018-01-08T18:19:08.464Z,18.07
2018-01-08T18:21:37.041Z,20.63
2018-01-08T18:24:05.377Z,17.10
2018-01-08T18:26:33.767Z,17.77
2018-01-08T18:29:02.145Z,22.47
2018-01-08T18:31:30.547Z,24.10
2018-01-08T18:33:58.889Z,16.50
2018-01-08T18:36:28.512Z,26.03
2018-01-08T18:38:57.454Z,24.73
2018-01-08T18:41:25.881Z,12.80
2018-01-08T18:43:54.351Z,13.87
2018-01-08T18:46:22.729Z,16.77
2018-01-08T18:48:51.173Z,21.30
2018-01-08T18:51:19.673Z,16.60
2018-01-08T18:53:48.037Z,23.17
2018-01-08T18:56:16.580Z,22.17
2018-01-08T18:58:45.728Z,19.17
2018-01-08T19:01:14.104Z,14.67
2018-01-08T19:03:42.266Z,24.80
2018-01-08T19:06:10.710Z,25.30
2018-01-08T19:08:39.887Z,17.10
2018-01-08T19:11:09.141Z,18.67
2018-01-08T19:13:37.547Z,24.03
2018-01-08T19:16:05.981Z,17.43
2018-01-08T19:18:34.501Z,22.20
2018-01-08T19:21:03.454Z,24.90
2018-01-08T19:23:32.068Z,24.03
2018-01-08T19:26:01.414Z,17.93
2018-01-08T19:28:30.576Z,19.07
2018-01-08T19:30:59.064Z,20.00
2018-01-08T19:33:28.263Z,24.23
2018-01-08T19:35:56.796Z,24.27
2018-01-08T19:38:25.325Z,19.37
2018-01-08T19:40:54.284Z,14.17
2018-01-08T19:43:22.764Z,22.10
2018-01-08T19:45:51.211Z,19.83
2018-01-08T19:48:19.632Z,25.87
2018-01-08T19:50:49.050Z,26.00
2018-01-08T19:53:17.485Z,22.60
2018-01-08T19:55:46.053Z,19.13
2018-01-08T19:58:14.557Z,11.17
2018-01-08T20:00:43.420Z,23.97
2018-01-08T20:03:11.911Z,24.00
2018-01-08T20:05:40.464Z,22.53
2018-01-08T20:08:09.852Z,23.50
2018-01-08T20:10:38.313Z,22.03
2018-01-08T20:13:06.861Z,20.37
2018-01-08T20:15:35.478Z,26.70
2018-01-08T20:18:04.704Z,29.20
2018-01-08T20:20:33.956Z,20.57
2018-01-08T20:23:02.569Z,30.40
2018-01-08T20:25:31.067Z,20.67
2018-01-08T20:27:59.757Z,21.43
2018-01-08T20:30:28.522Z,18.47
2018-01-08T20:32:57.779Z,17.87
2018-01-08T20:35:26.224Z,27.63
2018-01-08T20:37:55.416Z,29.93
2018-01-08T20:40:24.652Z,24.43
2018-01-08T20:42:53.251Z,14.97
2018-01-08T20:45:22.083Z,18.27
2018-01-08T20:47:50.563Z,19.60
2018-01-08T20:50:19.849Z,19.40
2018-01-08T20:52:48.475Z,20.63
2018-01-08T20:55:17.426Z,19.83
2018-01-08T20:57:45.888Z,23.80
2018-01-08T21:00:14.229Z,23.73
2018-01-08T21:02:42.807Z,22.83
2018-01-08T21:05:11.427Z,22.47
2018-01-08T21:07:39.840Z,15.03
2018-01-08T21:10:08.435Z,20.73
2018-01-08T21:12:37.619Z,27.77
2018-01-08T21:15:06.020Z,19.90
2018-01-08T21:17:35.130Z,17.20
2018-01-08T21:20:03.270Z,16.77
2018-01-08T21:22:32.378Z,20.17
2018-01-08T21:25:01.575Z,18.50
2018-01-08T21:27:30.703Z,13.03
2018-01-08T21:29:59.600Z,20.50
2018-01-08T21:32:27.743Z,23.50
2018-01-08T21:34:56.099Z,25.27
2018-01-08T21:37:24.594Z,24.60
2018-01-08T21:39:53.767Z,24.27
2018-01-08T21:42:22.133Z,22.20
2018-01-08T21:44:50.641Z,27.43
2018-01-08T21:47:19.759Z,32.20
2018-01-08T21:49:48.111Z,21.90
2018-01-08T21:52:17.225Z,27.77
2018-01-08T21:54:45.602Z,22.87
2018-01-08T21:57:13.930Z,29.93
2018-01-08T21:59:42.422Z,22.60
2018-01-08T22:02:10.464Z,21.87
2018-01-08T22:04:40.524Z,23.77
2018-01-08T22:07:08.870Z,27.30
2018-01-08T22:09:37.217Z,30.00
2018-01-08T22:12:05.568Z,26.70
2018-01-08T22:14:34.766Z,18.50
2018-01-08T22:17:03.890Z,26.70
2018-01-08T22:19:32.244Z,29.07
2018-01-08T22:22:01.339Z,26.20
2018-01-08T22:24:30.591Z,29.57
2018-01-08T22:26:59.409Z,16.50
2018-01-08T22:29:28.417Z,23.23
2018-01-08T22:31:57.544Z,25.67
2018-01-08T22:34:25.987Z,25.90
2018-01-08T22:36:55.103Z,25.57
2018-01-08T22:39:23.444Z,26.60
2018-01-08T22:41:51.792Z,20.40
2018-01-08T22:44:20.208Z,20.23
2018-01-08T22:46:49.324Z,24.73
2018-01-08T22:49:17.689Z,19.43
2018-01-08T22:51:46.813Z,21.37
2018-01-08T22:54:15.151Z,20.83
2018-01-08T22:56:44.278Z,30.17
2018-01-08T22:59:12.630Z,25.40
2018-01-08T23:01:41.735Z,21.43
2018-01-08T23:04:10.928Z,18.47
2018-01-08T23:06:40.027Z,28.13
2018-01-08T23:09:09.163Z,24.47
2018-01-08T23:11:37.529Z,23.50
2018-01-08T23:14:05.957Z,22.50
2018-01-08T23:16:34.305Z,16.93
2018-01-08T23:19:02.669Z,19.73
2018-01-08T23:21:31.035Z,15.10
2018-01-08T23:23:59.776Z,21.70
2018-01-08T23:26:29.212Z,23.27
2018-01-08T23:28:59.853Z,27.43
2018-01-08T23:31:29.153Z,22.27
2018-01-08T23:33:57.888Z,21.47
2018-01-08T23:36:26.240Z,17.13
2018-01-08T23:38:55.356Z,21.17
2018-01-08T23:41:23.679Z,16.47
2018-01-08T23:43:52.040Z,26.00
2018-01-08T23:46:21.166Z,21.43
2018-01-08T23:48:49.594Z,14.63
2018-01-08T23:51:17.953Z,22.73
2018-01-08T23:53:46.340Z,18.83
2018-01-08T23:56:14.681Z,18.23
2018-01-08T23:58:43.099Z,9.97
